createdAt,value
2022-11-20T00:01:09.599Z,73.96
2022-11-20T00:03:36.257Z,74.07
2022-11-20T00:06:08.140Z,74.53
2022-11-20T00:08:34.823Z,74.06
2022-11-20T00:11:16.049Z,74.05
2022-11-20T00:13:45.412Z,73.73
2022-11-20T00:16:13.731Z,74.36
2022-11-20T00:18:40.524Z,73.66
2022-11-20T00:21:11.938Z,73.71
2022-11-20T00:23:38.434Z,74.19
2022-11-20T00:26:06.492Z,74.26
2022-11-20T00:28:33.081Z,74.54
2022-11-20T00:31:12.151Z,74.72
2022-11-20T00:33:40.133Z,74.48
2022-11-20T00:36:08.867Z,74.58
2022-11-20T00:38:35.968Z,74.54
2022-11-20T00:41:05.370Z,74.73
2022-11-20T00:43:31.876Z,74.70
2022-11-20T00:46:03.254Z,74.62
2022-11-20T00:48:29.809Z,74.88
2022-11-20T00:50:57.016Z,74.75
2022-11-20T00:53:23.891Z,74.72
2022-11-20T00:55:55.190Z,74.48
2022-11-20T00:58:23.015Z,74.25
2022-11-20T01:00:49.662Z,74.53
2022-11-20T01:03:17.330Z,74.83
2022-11-20T01:05:43.967Z,74.59
2022-11-20T01:08:10.416Z,74.42
2022-11-20T01:10:36.724Z,74.42
2022-11-20T01:13:03.239Z,74.83
2022-11-20T01:15:29.551Z,74.32
2022-11-20T01:17:55.915Z,74.16
2022-11-20T01:20:22.267Z,74.19
2022-11-20T01:22:48.570Z,74.17
2022-11-20T01:25:15.144Z,73.98
2022-11-20T01:27:41.449Z,74.34
2022-11-20T01:30:08.623Z,74.65
2022-11-20T01:32:35.111Z,74.85
2022-11-20T01:35:01.499Z,74.73
2022-11-20T01:37:27.798Z,75.13
2022-11-20T01:39:54.091Z,75.48
2022-11-20T01:42:20.494Z,76.23
2022-11-20T01:44:59.983Z,76.29
2022-11-20T01:47:38.044Z,76.33
2022-11-20T01:50:29.261Z,75.72
2022-11-20T01:52:59.983Z,75.63
2022-11-20T01:55:33.346Z,76.17
2022-11-20T01:58:01.207Z,76.43
2022-11-20T02:00:27.741Z,76.28
2022-11-20T02:03:16.655Z,76.42
2022-11-20T02:05:48.530Z,75.77
2022-11-20T02:08:14.908Z,75.91
2022-11-20T02:10:41.289Z,75.60
2022-11-20T02:13:08.416Z,75.34
2022-11-20T02:15:35.053Z,75.24
2022-11-20T02:18:01.969Z,75.06
2022-11-20T02:20:28.622Z,75.32
2022-11-20T02:23:01.150Z,75.61
2022-11-20T02:25:30.960Z,75.22
2022-11-20T02:27:57.734Z,75.36
2022-11-20T02:30:24.491Z,75.19
2022-11-20T02:32:50.817Z,75.55
2022-11-20T02:35:41.507Z,75.25
2022-11-20T02:38:07.843Z,75.37
2022-11-20T02:40:34.243Z,75.50
2022-11-20T02:43:00.594Z,75.25
2022-11-20T02:45:26.996Z,75.48
2022-11-20T02:47:54.116Z,75.44
2022-11-20T02:50:20.556Z,75.35
2022-11-20T02:52:47.371Z,74.72
2022-11-20T02:55:13.725Z,74.52
2022-11-20T02:57:40.275Z,75.22
2022-11-20T03:00:07.716Z,75.09
2022-11-20T03:02:34.501Z,75.12
2022-11-20T03:05:00.949Z,74.95
2022-11-20T03:07:27.555Z,75.03
2022-11-20T03:09:53.955Z,74.50
2022-11-20T03:12:20.428Z,74.35
2022-11-20T03:14:52.583Z,74.42
2022-11-20T03:17:19.544Z,74.20
2022-11-20T03:19:45.899Z,74.08
2022-11-20T03:22:12.200Z,74.46
2022-11-20T03:24:38.790Z,74.50
2022-11-20T03:27:05.372Z,74.07
2022-11-20T03:29:31.761Z,73.99
2022-11-20T03:31:58.100Z,74.32
2022-11-20T03:34:24.778Z,74.30
2022-11-20T03:36:51.157Z,74.10
2022-11-20T03:39:17.480Z,74.57
2022-11-20T03:41:43.808Z,75.21
2022-11-20T03:44:12.328Z,74.85
2022-11-20T03:46:39.196Z,74.63
2022-11-20T03:49:05.732Z,74.82
2022-11-20T03:51:34.265Z,74.84
2022-11-20T03:54:05.485Z,74.73
2022-11-20T03:56:34.367Z,75.14
2022-11-20T03:59:00.955Z,75.17
2022-11-20T04:01:36.242Z,75.16
2022-11-20T04:04:03.128Z,75.07
2022-11-20T04:06:39.034Z,75.29
2022-11-20T04:09:06.452Z,75.40
2022-11-20T04:11:35.081Z,75.60
2022-11-20T04:14:04.747Z,75.15
2022-11-20T04:16:33.622Z,75.63
2022-11-20T04:19:02.497Z,76.04
2022-11-20T04:21:29.517Z,76.04
2022-11-20T04:23:56.313Z,76.12
2022-11-20T04:26:25.001Z,76.21
2022-11-20T04:28:51.615Z,76.61
2022-11-20T04:31:21.133Z,76.89
2022-11-20T04:33:48.083Z,76.83
2022-11-20T04:36:22.812Z,76.86
2022-11-20T04:38:57.557Z,77.22
2022-11-20T04:41:26.641Z,77.73
2022-11-20T04:43:55.789Z,77.67
2022-11-20T04:46:22.252Z,77.81
2022-11-20T04:48:48.872Z,77.90
2022-11-20T04:51:15.431Z,78.16
2022-11-20T04:53:42.793Z,78.25
2022-11-20T04:56:11.078Z,78.47
2022-11-20T04:58:37.928Z,78.45
2022-11-20T05:01:19.724Z,77.95
2022-11-20T05:03:46.497Z,78.24
2022-11-20T05:06:15.936Z,78.10
2022-11-20T05:08:42.439Z,77.78
2022-11-20T05:11:14.060Z,77.78
2022-11-20T05:13:40.924Z,77.77
2022-11-20T05:16:10.159Z,77.89
2022-11-20T05:18:38.142Z,77.93
2022-11-20T05:21:05.455Z,77.92
2022-11-20T05:23:33.338Z,78.61
2022-11-20T05:26:00.610Z,78.55
2022-11-20T05:28:29.460Z,78.80
2022-11-20T05:30:56.057Z,78.52
2022-11-20T05:33:23.043Z,78.64
2022-11-20T05:35:50.327Z,78.57
2022-11-20T05:38:17.142Z,78.69
2022-11-20T05:40:44.050Z,78.24
2022-11-20T05:43:10.484Z,77.91
2022-11-20T05:45:37.157Z,78.52
2022-11-20T05:48:03.971Z,78.34
2022-11-20T05:50:30.973Z,78.63
2022-11-20T05:53:00.608Z,78.62
2022-11-20T05:55:27.870Z,78.65
2022-11-20T05:57:55.321Z,78.63
2022-11-20T06:00:21.882Z,78.49
2022-11-20T06:02:48.448Z,78.51
2022-11-20T06:05:14.904Z,78.91
2022-11-20T06:07:41.507Z,79.15
2022-11-20T06:10:08.131Z,79.28
2022-11-20T06:12:34.522Z,79.39
2022-11-20T06:15:00.827Z,78.95
2022-11-20T06:17:27.390Z,79.28
2022-11-20T06:19:53.778Z,79.51
2022-11-20T06:22:20.128Z,79.58
2022-11-20T06:24:46.464Z,79.51
2022-11-20T06:27:12.874Z,79.47
2022-11-20T06:29:39.426Z,79.19
2022-11-20T06:32:05.932Z,79.66
2022-11-20T06:34:32.257Z,79.54
2022-11-20T06:36:58.681Z,79.28
2022-11-20T06:39:25.105Z,79.75
2022-11-20T06:41:55.807Z,79.70
2022-11-20T06:44:25.350Z,79.78
2022-11-20T06:46:51.720Z,79.31
2022-11-20T06:49:18.087Z,79.40
2022-11-20T06:51:44.408Z,80.00
2022-11-20T06:54:10.986Z,80.27
2022-11-20T06:56:37.313Z,80.56
2022-11-20T06:59:07.601Z,80.46
2022-11-20T07:01:34.254Z,80.50
2022-11-20T07:04:00.572Z,80.57
2022-11-20T07:06:27.123Z,80.63
2022-11-20T07:08:53.411Z,80.38
2022-11-20T07:11:20.087Z,80.24
2022-11-20T07:13:46.471Z,80.69
2022-11-20T07:16:12.793Z,80.54
2022-11-20T07:18:39.367Z,81.04
2022-11-20T07:21:08.398Z,80.84
2022-11-20T07:23:35.098Z,81.41
2022-11-20T07:26:09.120Z,81.33
2022-11-20T07:28:36.103Z,81.42
2022-11-20T07:31:02.640Z,81.32
2022-11-20T07:33:29.425Z,81.40
2022-11-20T07:35:55.778Z,81.14
2022-11-20T07:38:22.121Z,80.90
2022-11-20T07:40:48.580Z,80.89
2022-11-20T07:43:14.963Z,80.92
2022-11-20T07:45:41.274Z,80.58
2022-11-20T07:48:07.666Z,80.82
2022-11-20T07:50:33.978Z,81.05
2022-11-20T07:53:05.469Z,80.98
2022-11-20T07:55:32.309Z,81.13
2022-11-20T07:57:59.063Z,81.36
2022-11-20T08:00:27.371Z,81.15
2022-11-20T08:02:54.014Z,80.92
2022-11-20T08:05:20.355Z,80.99
2022-11-20T08:07:46.821Z,81.05
2022-11-20T08:10:15.251Z,81.29
2022-11-20T08:12:46.841Z,80.78
2022-11-20T08:15:13.572Z,80.82
2022-11-20T08:17:40.180Z,80.83
2022-11-20T08:20:07.059Z,81.06
2022-11-20T08:22:34.369Z,81.03
2022-11-20T08:25:00.683Z,81.16
2022-11-20T08:27:27.174Z,80.98
2022-11-20T08:29:53.559Z,81.25
2022-11-20T08:32:19.876Z,81.31
2022-11-20T08:34:46.264Z,81.37
2022-11-20T08:37:13.033Z,81.26
2022-11-20T08:39:39.658Z,81.00
2022-11-20T08:42:09.380Z,80.99
2022-11-20T08:44:35.782Z,80.89
2022-11-20T08:47:02.354Z,81.14
2022-11-20T08:49:28.667Z,81.21
2022-11-20T08:51:55.069Z,81.37
2022-11-20T08:54:21.717Z,81.35
2022-11-20T08:56:48.349Z,81.43
2022-11-20T09:02:01.116Z,81.61
2022-11-20T09:04:27.479Z,81.01
2022-11-20T09:06:53.913Z,81.48
2022-11-20T09:09:20.743Z,80.61
2022-11-20T09:11:47.399Z,80.85
2022-11-20T09:14:13.783Z,81.25
2022-11-20T09:16:40.112Z,81.19
2022-11-20T09:19:34.109Z,81.37
2022-11-20T09:21:58.271Z,81.69
2022-11-20T09:24:26.600Z,82.19
2022-11-20T09:26:52.977Z,82.24
2022-11-20T09:29:19.617Z,82.62
2022-11-20T09:31:46.433Z,82.42
2022-11-20T09:34:12.747Z,81.62
2022-11-20T09:36:39.075Z,81.79
2022-11-20T09:39:05.480Z,82.24
2022-11-20T09:42:16.450Z,82.39
2022-11-20T09:45:04.289Z,82.43
2022-11-20T09:47:54.264Z,82.15
2022-11-20T09:50:35.804Z,81.68
2022-11-20T09:53:24.590Z,81.95
2022-11-20T09:55:51.537Z,81.18
2022-11-20T09:58:32.277Z,81.78
2022-11-20T10:01:14.914Z,82.05
2022-11-20T10:04:10.822Z,82.34
2022-11-20T10:07:31.411Z,82.53
2022-11-20T10:09:57.130Z,82.57
2022-11-20T10:12:36.156Z,82.44
2022-11-20T10:15:21.024Z,81.67
2022-11-20T10:18:09.489Z,81.32
2022-11-20T10:20:42.001Z,80.84
2022-11-20T10:23:25.569Z,80.32
2022-11-20T10:26:34.435Z,80.65
2022-11-20T10:29:19.780Z,78.70
2022-11-20T10:32:01.108Z,79.78
2022-11-20T10:34:42.588Z,80.56
2022-11-20T10:37:31.619Z,80.70
2022-11-20T10:40:20.344Z,79.88
2022-11-20T10:42:57.925Z,79.35
2022-11-20T10:45:27.348Z,79.27
2022-11-20T10:48:28.938Z,77.92
2022-11-20T10:51:16.550Z,79.22
2022-11-20T10:54:19.778Z,80.56
2022-11-20T10:56:52.308Z,81.24
2022-11-20T10:59:54.686Z,81.80
2022-11-20T11:02:26.070Z,81.68
2022-11-20T11:04:55.701Z,81.70
2022-11-20T11:07:26.943Z,81.61
2022-11-20T11:09:55.405Z,81.75
2022-11-20T11:12:23.996Z,81.64
2022-11-20T11:14:52.884Z,81.54
2022-11-20T11:17:21.373Z,81.14
2022-11-20T11:20:01.498Z,80.69
2022-11-20T11:22:30.102Z,81.20
2022-11-20T11:24:56.594Z,81.27
2022-11-20T11:27:23.143Z,81.12
2022-11-20T11:29:49.504Z,81.12
2022-11-20T11:32:18.110Z,80.82
2022-11-20T11:34:45.001Z,80.91
2022-11-20T11:37:18.240Z,80.02
2022-11-20T11:39:51.881Z,79.31
2022-11-20T11:42:25.889Z,79.38
2022-11-20T11:44:53.178Z,79.28
2022-11-20T11:47:34.177Z,79.48
2022-11-20T11:50:09.552Z,80.15
2022-11-20T11:53:17.501Z,79.08
2022-11-20T11:55:59.939Z,79.66
2022-11-20T11:58:46.863Z,80.64
2022-11-20T12:01:33.709Z,79.79
2022-11-20T12:04:26.822Z,80.60
2022-11-20T12:07:18.369Z,79.51
2022-11-20T12:09:52.850Z,79.19
2022-11-20T12:12:25.376Z,79.96
2022-11-20T12:14:55.741Z,79.74
2022-11-20T12:17:22.478Z,80.02
2022-11-20T12:19:49.079Z,79.18
2022-11-20T12:22:39.858Z,78.80
2022-11-20T12:25:15.079Z,77.55
2022-11-20T12:27:56.919Z,77.53
2022-11-20T12:30:23.916Z,78.81
2022-11-20T12:33:14.124Z,79.86
2022-11-20T12:35:40.380Z,79.29
2022-11-20T12:38:32.883Z,78.64
2022-11-20T12:41:23.501Z,77.24
2022-11-20T12:44:21.020Z,77.78
2022-11-20T12:46:57.900Z,77.29
2022-11-20T12:49:33.252Z,77.51
2022-11-20T12:52:06.890Z,77.12
2022-11-20T12:55:04.714Z,77.44
2022-11-20T12:57:49.932Z,79.24
2022-11-20T13:00:20.463Z,79.78
2022-11-20T13:03:14.732Z,80.14
2022-11-20T13:06:00.700Z,80.31
2022-11-20T13:08:30.884Z,79.44
2022-11-20T13:11:15.430Z,80.24
2022-11-20T13:13:51.081Z,79.80
2022-11-20T13:16:30.225Z,80.20
2022-11-20T13:18:56.807Z,79.60
2022-11-20T13:21:37.604Z,79.59
2022-11-20T13:24:22.761Z,80.63
2022-11-20T13:26:49.755Z,81.24
2022-11-20T13:29:19.972Z,81.27
2022-11-20T13:31:48.203Z,81.11
2022-11-20T13:34:26.589Z,80.28
2022-11-20T13:36:58.627Z,79.83
2022-11-20T13:39:27.279Z,80.49
2022-11-20T13:42:02.159Z,80.78
2022-11-20T13:44:39.419Z,81.06
2022-11-20T13:47:23.521Z,80.83
2022-11-20T13:49:50.195Z,80.69
2022-11-20T13:52:36.716Z,80.38
2022-11-20T13:55:09.252Z,80.68
2022-11-20T13:57:41.496Z,80.75
2022-11-20T14:00:18.526Z,80.39
2022-11-20T14:02:47.800Z,79.56
2022-11-20T14:05:21.396Z,76.50
2022-11-20T14:07:49.427Z,76.72
2022-11-20T14:10:32.060Z,77.92
2022-11-20T14:12:59.644Z,78.40
2022-11-20T14:15:30.448Z,77.94
2022-11-20T14:17:57.409Z,78.30
2022-11-20T14:20:29.835Z,78.33
2022-11-20T14:22:56.636Z,78.72
2022-11-20T14:25:26.650Z,78.81
2022-11-20T14:27:56.133Z,78.99
2022-11-20T14:30:47.474Z,79.16
2022-11-20T14:33:15.530Z,78.95
2022-11-20T14:35:46.866Z,79.09
2022-11-20T14:38:17.214Z,78.68
2022-11-20T14:40:44.142Z,78.15
2022-11-20T14:43:18.883Z,77.90
2022-11-20T14:45:49.719Z,77.68
2022-11-20T14:48:17.015Z,77.94
2022-11-20T14:50:43.300Z,78.52
2022-11-20T14:53:09.847Z,78.75
2022-11-20T14:55:38.536Z,79.07
2022-11-20T14:58:22.924Z,79.56
2022-11-20T15:01:26.161Z,79.93
2022-11-20T15:04:01.277Z,80.15
2022-11-20T15:06:27.941Z,80.45
2022-11-20T15:08:54.467Z,80.62
2022-11-20T15:11:30.728Z,80.71
2022-11-20T15:13:57.863Z,80.80
2022-11-20T15:16:24.622Z,80.86
2022-11-20T15:18:51.453Z,80.75
2022-11-20T15:21:19.966Z,81.08
2022-11-20T15:23:46.375Z,81.52
2022-11-20T15:26:19.833Z,81.66
2022-11-20T15:28:48.325Z,81.39
2022-11-20T15:31:17.457Z,81.47
2022-11-20T15:33:46.209Z,81.63
2022-11-20T15:36:12.533Z,82.20
2022-11-20T15:38:39.168Z,81.58
2022-11-20T15:41:05.850Z,81.63
2022-11-20T15:43:32.287Z,81.35
2022-11-20T15:46:14.403Z,81.32
2022-11-20T15:48:48.511Z,81.54
2022-11-20T15:51:21.200Z,81.84
2022-11-20T15:53:47.909Z,81.91
2022-11-20T15:56:15.351Z,81.78
2022-11-20T15:58:42.125Z,81.45
2022-11-20T16:01:14.272Z,81.85
2022-11-20T16:03:41.994Z,82.04
2022-11-20T16:06:08.767Z,81.81
2022-11-20T16:08:35.171Z,81.85
2022-11-20T16:11:01.698Z,81.75
2022-11-20T16:13:28.393Z,81.71
2022-11-20T16:15:59.206Z,81.33
2022-11-20T16:18:25.974Z,81.37
2022-11-20T16:20:54.249Z,81.22
2022-11-20T16:23:21.484Z,81.54
2022-11-20T16:25:48.804Z,81.66
2022-11-20T16:28:18.885Z,81.55
2022-11-20T16:30:46.153Z,81.82
2022-11-20T16:33:15.459Z,81.99
2022-11-20T16:35:42.393Z,82.26
2022-11-20T16:38:08.743Z,82.26
2022-11-20T16:40:35.247Z,82.60
2022-11-20T16:43:10.802Z,82.55
2022-11-20T16:45:44.870Z,82.20
2022-11-20T16:48:16.121Z,82.22
2022-11-20T16:50:48.134Z,82.18
2022-11-20T16:53:14.566Z,81.94
2022-11-20T16:55:41.444Z,81.76
2022-11-20T16:58:07.873Z,81.51
2022-11-20T17:00:37.403Z,81.44
2022-11-20T17:03:05.448Z,81.12
2022-11-20T17:05:32.705Z,81.29
2022-11-20T17:07:59.109Z,80.84
2022-11-20T17:10:25.469Z,80.65
2022-11-20T17:12:51.899Z,80.57
2022-11-20T17:15:18.442Z,80.99
2022-11-20T17:17:44.778Z,81.20
2022-11-20T17:20:11.489Z,81.43
2022-11-20T17:22:38.367Z,81.31
2022-11-20T17:25:05.315Z,79.60
2022-11-20T17:27:31.946Z,79.54
2022-11-20T17:29:58.276Z,80.67
2022-11-20T17:32:24.825Z,80.69
2022-11-20T17:34:51.380Z,81.00
2022-11-20T17:37:17.684Z,80.99
2022-11-20T17:39:44.325Z,80.82
2022-11-20T17:42:10.757Z,81.09
2022-11-20T17:44:37.067Z,80.83
2022-11-20T17:47:03.526Z,80.22
2022-11-20T17:49:30.192Z,80.75
2022-11-20T17:51:56.564Z,80.92
2022-11-20T17:54:23.185Z,81.08
2022-11-20T17:56:49.576Z,80.91
2022-11-20T17:59:16.180Z,80.93
2022-11-20T18:01:42.597Z,80.71
2022-11-20T18:04:09.416Z,80.74
2022-11-20T18:06:35.946Z,80.72
2022-11-20T18:09:06.434Z,80.86
2022-11-20T18:11:35.568Z,80.98
2022-11-20T18:14:04.608Z,81.59
2022-11-20T18:16:42.149Z,81.26
2022-11-20T18:19:09.992Z,81.50
2022-11-20T18:21:36.595Z,82.11
2022-11-20T18:24:03.096Z,81.82
2022-11-20T18:26:29.534Z,82.01
2022-11-20T18:28:56.786Z,82.01
2022-11-20T18:31:23.286Z,82.14
2022-11-20T18:33:49.919Z,81.84
2022-11-20T18:36:17.525Z,81.77
2022-11-20T18:38:46.258Z,82.19
2022-11-20T18:41:18.045Z,82.56
2022-11-20T18:43:44.363Z,82.54
2022-11-20T18:46:10.812Z,82.53
2022-11-20T18:48:37.359Z,82.36
2022-11-20T18:51:07.771Z,82.89
2022-11-20T18:53:37.682Z,82.61
2022-11-20T18:56:06.062Z,82.79
2022-11-20T18:58:33.042Z,83.13
2022-11-20T19:01:07.383Z,83.06
2022-11-20T19:03:34.896Z,83.08
2022-11-20T19:06:01.496Z,83.12
2022-11-20T19:08:28.554Z,83.20
2022-11-20T19:10:55.395Z,83.41
2022-11-20T19:13:21.794Z,83.37
2022-11-20T19:15:48.320Z,83.74
2022-11-20T19:18:14.680Z,83.98
2022-11-20T19:20:41.084Z,84.22
2022-11-20T19:23:07.500Z,83.99
2022-11-20T19:25:37.890Z,84.42
2022-11-20T19:28:05.589Z,84.44
2022-11-20T19:30:33.296Z,83.72
2022-11-20T19:32:59.628Z,84.48
2022-11-20T19:35:26.353Z,83.47
2022-11-20T19:37:53.355Z,84.58
2022-11-20T19:40:20.111Z,84.99
2022-11-20T19:42:46.559Z,85.12
2022-11-20T19:45:12.977Z,85.24
2022-11-20T19:48:06.583Z,85.47
2022-11-20T19:50:26.303Z,85.43
2022-11-20T19:52:58.380Z,85.65
2022-11-20T19:55:25.377Z,86.07
2022-11-20T19:57:52.148Z,85.77
2022-11-20T20:00:25.646Z,85.97
2022-11-20T20:02:57.572Z,86.21
2022-11-20T20:05:23.966Z,86.95
2022-11-20T20:07:50.292Z,86.48
2022-11-20T20:10:17.083Z,86.78
2022-11-20T20:12:43.716Z,86.93
2022-11-20T20:15:10.192Z,86.80
2022-11-20T20:17:36.612Z,86.68
2022-11-20T20:20:03.435Z,86.91
2022-11-20T20:22:29.944Z,86.95
2022-11-20T20:24:56.240Z,86.81
2022-11-20T20:27:22.908Z,86.76
2022-11-20T20:29:49.213Z,86.90
2022-11-20T20:32:15.540Z,87.07
2022-11-20T20:34:42.438Z,87.31
2022-11-20T20:37:08.994Z,87.29
2022-11-20T20:39:35.365Z,87.47
2022-11-20T20:42:01.859Z,87.11
2022-11-20T20:44:28.201Z,87.50
2022-11-20T20:46:54.557Z,87.64
2022-11-20T20:49:21.245Z,88.02
2022-11-20T20:51:48.130Z,88.35
2022-11-20T20:54:14.619Z,88.12
2022-11-20T20:56:40.927Z,88.19
2022-11-20T20:59:07.287Z,88.45
2022-11-20T21:01:33.938Z,88.24
2022-11-20T21:04:00.394Z,87.96
2022-11-20T21:06:26.844Z,88.14
2022-11-20T21:08:53.424Z,88.55
2022-11-20T21:11:20.589Z,89.29
2022-11-20T21:13:48.134Z,88.97
2022-11-20T21:16:16.021Z,89.04
2022-11-20T21:18:42.488Z,89.34
2022-11-20T21:21:12.783Z,89.39
2022-11-20T21:23:39.437Z,89.25
2022-11-20T21:26:08.877Z,89.40
2022-11-20T21:28:36.970Z,89.26
2022-11-20T21:31:15.320Z,89.44
2022-11-20T21:33:44.154Z,89.22
2022-11-20T21:36:12.915Z,89.17
2022-11-20T21:38:39.676Z,89.26
2022-11-20T21:41:08.103Z,89.15
2022-11-20T21:43:35.416Z,89.65
2022-11-20T21:46:10.186Z,89.46
2022-11-20T21:48:38.666Z,89.30
2022-11-20T21:51:09.788Z,89.51
2022-11-20T21:53:36.564Z,89.53
2022-11-20T21:56:04.000Z,89.61
2022-11-20T21:58:30.996Z,89.47
2022-11-20T22:00:58.206Z,89.12
2022-11-20T22:03:24.803Z,89.85
2022-11-20T22:05:57.912Z,89.71
2022-11-20T22:08:25.610Z,90.32
2022-11-20T22:10:59.156Z,90.37
2022-11-20T22:13:26.710Z,90.47
2022-11-20T22:16:00.779Z,90.08
2022-11-20T22:18:27.578Z,90.07
2022-11-20T22:20:53.927Z,89.58
2022-11-20T22:23:20.339Z,89.60
2022-11-20T22:25:46.668Z,90.34
2022-11-20T22:28:13.089Z,90.47
2022-11-20T22:30:39.515Z,90.50
2022-11-20T22:33:11.934Z,89.72
2022-11-20T22:35:39.843Z,90.48
2022-11-20T22:38:06.137Z,90.19
2022-11-20T22:40:32.543Z,90.50
2022-11-20T22:42:59.859Z,90.56
2022-11-20T22:45:26.170Z,89.50
2022-11-20T22:47:52.564Z,89.95
2022-11-20T22:50:18.954Z,90.21
2022-11-20T22:52:45.328Z,90.54
2022-11-20T22:55:16.142Z,90.95
2022-11-20T22:57:44.141Z,91.85
2022-11-20T23:00:11.116Z,92.49
2022-11-20T23:02:37.648Z,92.51
2022-11-20T23:05:04.376Z,92.34
2022-11-20T23:07:30.786Z,92.70
2022-11-20T23:09:57.251Z,92.70
2022-11-20T23:12:23.634Z,92.43
2022-11-20T23:14:49.937Z,91.95
2022-11-20T23:17:16.730Z,91.65
2022-11-20T23:19:43.123Z,91.65
2022-11-20T23:22:09.538Z,92.24
2022-11-20T23:24:35.843Z,92.47
2022-11-20T23:27:02.240Z,92.69
2022-11-20T23:29:28.671Z,92.14
2022-11-20T23:31:55.101Z,91.93
2022-11-20T23:34:21.469Z,91.94
2022-11-20T23:36:47.963Z,92.23
2022-11-20T23:39:14.362Z,91.76
2022-11-20T23:41:40.681Z,92.00
2022-11-20T23:44:07.257Z,91.97
2022-11-20T23:46:33.662Z,91.92
2022-11-20T23:49:00.336Z,92.36
2022-11-20T23:51:27.044Z,92.54
2022-11-20T23:53:53.452Z,92.76
2022-11-20T23:56:19.768Z,92.73
2022-11-20T23:58:46.115Z,93.20
